Time;durP1;ratioP1;P1;durP2;ratioP2;P2;SDS_P1;SDS_P2;PMS_P1;PMS_P2;Temp;Humidity;BMP_temperature;BMP_pressure;BME280_temperature;BME280_humidity;BME280_pressure;Samples;Min_cycle;Max_cycle;Signal;HPM_P1;HPM_P2
2022/05/01 00:02:13;;;;;;;18.08;10.15;;;8.60;99.90;;;;;;5073528;28;20447;-51
2022/05/01 00:04:38;;;;;;;13.18;9.52;;;8.60;99.90;;;;;;5073188;28;20555;-51
2022/05/01 00:07:04;;;;;;;14.88;10.25;;;8.60;99.90;;;;;;5073158;28;20079;-52
2022/05/01 00:09:30;;;;;;;15.75;10.00;;;8.50;99.90;;;;;;5072471;28;20116;-51
2022/05/01 00:11:55;;;;;;;17.60;9.68;;;8.50;99.90;;;;;;5073000;28;20048;-52
2022/05/01 00:14:21;;;;;;;15.95;9.90;;;8.50;99.90;;;;;;5072987;28;20710;-52
2022/05/01 00:16:49;;;;;;;13.88;10.00;;;8.50;99.90;;;;;;5071920;28;20087;-52
2022/05/01 00:19:14;;;;;;;13.68;10.13;;;8.50;99.90;;;;;;5073098;28;20055;-51
2022/05/01 00:21:40;;;;;;;12.82;9.45;;;8.40;99.90;;;;;;5072794;28;20041;-51
2022/05/01 00:24:07;;;;;;;14.35;9.57;;;8.40;99.90;;;;;;5072815;28;20046;-50
2022/05/01 00:26:33;;;;;;;15.10;10.10;;;8.40;99.90;;;;;;5072627;28;20440;-50
2022/05/01 00:29:01;;;;;;;13.85;9.30;;;8.40;99.90;;;;;;5071056;28;20047;-48
2022/05/01 00:31:27;;;;;;;15.90;10.02;;;8.30;99.90;;;;;;5072905;28;20032;-48
2022/05/01 00:36:37;;;;;;;15.35;9.55;;;8.30;99.90;;;;;;5071255;28;20055;-47
2022/05/01 00:39:04;;;;;;;14.38;10.00;;;8.40;99.90;;;;;;5071337;28;20041;-50
2022/05/01 00:41:32;;;;;;;14.23;9.70;;;8.40;99.90;;;;;;5072364;28;20041;-48
2022/05/01 00:44:00;;;;;;;15.82;10.23;;;8.30;99.90;;;;;;5072408;28;20036;-51
2022/05/01 00:46:27;;;;;;;15.40;10.27;;;8.30;99.90;;;;;;5072471;28;20659;-50
2022/05/01 00:48:52;;;;;;;14.82;10.02;;;8.30;99.90;;;;;;5072163;28;20509;-52
2022/05/01 00:51:20;;;;;;;16.75;10.55;;;8.30;99.90;;;;;;5070210;28;20036;-50
2022/05/01 00:53:49;;;;;;;18.20;10.68;;;8.20;99.90;;;;;;5059362;28;20047;-51
2022/05/01 00:56:16;;;;;;;14.32;10.15;;;8.30;99.90;;;;;;5060088;28;20037;-51
2022/05/01 00:58:42;;;;;;;17.63;10.68;;;8.40;99.90;;;;;;5067203;28;20044;-49
2022/05/01 01:01:08;;;;;;;13.70;10.63;;;8.40;99.90;;;;;;5053365;28;20037;-48
2022/05/01 01:03:34;;;;;;;15.48;10.25;;;8.30;99.90;;;;;;5052124;28;20521;-47
2022/05/01 01:05:59;;;;;;;14.15;10.98;;;8.30;99.90;;;;;;5051924;28;20048;-49
2022/05/01 01:08:25;;;;;;;14.80;10.40;;;8.30;99.90;;;;;;5053089;28;20041;-48
2022/05/01 01:10:50;;;;;;;16.02;10.25;;;8.20;99.90;;;;;;5071595;28;20036;-51
2022/05/01 01:13:23;;;;;;;15.43;10.02;;;8.20;99.90;;;;;;5072188;28;20494;-49
2022/05/01 01:15:49;;;;;;;16.20;10.95;;;8.20;99.90;;;;;;5071950;28;20036;-49
2022/05/01 01:18:15;;;;;;;18.27;11.07;;;8.20;99.90;;;;;;5071619;28;20464;-48
2022/05/01 01:20:42;;;;;;;17.48;10.43;;;8.10;99.90;;;;;;5071653;28;20045;-48
2022/05/01 01:23:08;;;;;;;18.50;11.05;;;8.10;99.90;;;;;;5071580;28;20049;-49
2022/05/01 01:25:33;;;;;;;14.77;10.32;;;8.10;99.90;;;;;;5071810;28;20121;-49
2022/05/01 01:28:05;;;;;;;16.45;11.18;;;8.10;99.90;;;;;;5071603;28;20044;-48
2022/05/01 01:33:17;;;;;;;15.70;11.27;;;8.10;99.90;;;;;;5070333;28;20052;-49
2022/05/01 01:35:45;;;;;;;16.55;11.02;;;8.10;99.90;;;;;;5071438;28;20040;-49
2022/05/01 01:38:11;;;;;;;16.63;10.43;;;8.10;99.90;;;;;;5071649;28;20044;-48
2022/05/01 01:40:55;;;;;;;14.20;10.93;;;8.10;99.90;;;;;;5071431;28;20093;-48
2022/05/01 01:43:26;;;;;;;14.43;11.18;;;8.10;99.90;;;;;;5071513;28;20040;-49
2022/05/01 01:45:51;;;;;;;15.38;11.00;;;8.00;99.90;;;;;;5070061;28;20124;-48
2022/05/01 01:48:20;;;;;;;18.75;10.82;;;8.00;99.90;;;;;;5071606;28;20175;-48
2022/05/01 01:51:06;;;;;;;18.45;11.13;;;8.00;99.90;;;;;;5071619;28;20079;-48
2022/05/01 01:53:34;;;;;;;17.40;11.63;;;8.00;99.90;;;;;;5071563;28;20113;-49
2022/05/01 01:56:00;;;;;;;18.65;11.35;;;8.00;99.90;;;;;;5071259;28;20040;-49
2022/05/01 01:58:28;;;;;;;18.05;10.98;;;8.10;99.90;;;;;;5071016;28;20110;-48
2022/05/01 02:00:54;;;;;;;16.52;11.27;;;8.10;99.90;;;;;;5071627;28;20044;-48
2022/05/01 02:03:20;;;;;;;18.08;12.25;;;8.00;99.90;;;;;;5071454;28;20063;-48
2022/05/01 02:05:49;;;;;;;17.95;12.07;;;8.00;99.90;;;;;;5071323;28;20040;-48
2022/05/01 02:08:15;;;;;;;15.43;11.63;;;8.00;99.90;;;;;;5069716;28;20037;-48
2022/05/01 02:10:41;;;;;;;20.48;13.18;;;8.00;99.90;;;;;;5071352;28;20044;-48
2022/05/01 02:13:07;;;;;;;19.85;12.90;;;8.00;99.90;;;;;;5071046;28;20040;-48
2022/05/01 02:15:34;;;;;;;17.88;12.77;;;8.00;99.90;;;;;;5071329;28;20040;-49
2022/05/01 02:18:00;;;;;;;21.63;12.98;;;8.10;99.90;;;;;;5071248;28;20079;-49
2022/05/01 02:20:27;;;;;;;20.70;13.60;;;8.00;99.90;;;;;;5071375;28;20055;-49
2022/05/01 02:22:53;;;;;;;20.25;12.68;;;8.00;99.90;;;;;;5071030;28;20041;-48
2022/05/01 02:25:23;;;;;;;18.67;13.35;;;8.00;99.90;;;;;;5053125;28;20040;-48
2022/05/01 02:27:49;;;;;;;22.05;12.95;;;8.10;99.90;;;;;;5070791;28;20244;-50
2022/05/01 02:30:16;;;;;;;18.88;13.77;;;8.10;99.90;;;;;;5070313;28;20041;-48
2022/05/01 02:32:41;;;;;;;20.05;14.13;;;8.20;99.90;;;;;;5071627;28;20041;-47
2022/05/01 02:35:09;;;;;;;20.83;13.52;;;8.10;99.90;;;;;;5075049;28;20497;-48
2022/05/01 02:37:35;;;;;;;21.83;14.52;;;8.10;99.90;;;;;;5074696;28;20044;-48
2022/05/01 02:40:01;;;;;;;19.77;13.82;;;8.10;99.90;;;;;;5073488;28;20039;-48
2022/05/01 02:42:26;;;;;;;20.95;14.13;;;8.10;99.90;;;;;;5073193;28;20111;-49
2022/05/01 02:44:52;;;;;;;22.45;14.63;;;8.10;99.90;;;;;;5073619;28;20082;-49
2022/05/01 02:47:17;;;;;;;18.75;13.77;;;8.10;99.90;;;;;;5073476;28;20044;-47
2022/05/01 02:49:43;;;;;;;21.70;14.65;;;8.20;99.90;;;;;;5074679;28;20411;-50
2022/05/01 02:52:09;;;;;;;21.17;13.35;;;8.10;99.90;;;;;;5073373;28;20048;-48
2022/05/01 02:54:35;;;;;;;22.00;14.57;;;8.10;99.90;;;;;;5074654;28;20049;-48
2022/05/01 02:57:01;;;;;;;22.13;14.25;;;8.20;99.90;;;;;;5074117;28;20570;-49
2022/05/01 02:59:27;;;;;;;21.70;13.63;;;8.10;99.90;;;;;;5074501;28;20067;-50
2022/05/01 03:01:54;;;;;;;20.98;13.68;;;8.10;99.90;;;;;;5074397;28;20514;-48
2022/05/01 03:04:20;;;;;;;22.15;14.25;;;8.10;99.90;;;;;;5074229;28;20397;-48
2022/05/01 03:06:45;;;;;;;21.23;14.15;;;8.10;99.90;;;;;;5074192;28;20048;-48
2022/05/01 03:09:11;;;;;;;20.20;14.52;;;8.10;99.90;;;;;;5074019;28;20041;-48
2022/05/01 03:11:36;;;;;;;21.05;14.50;;;8.10;99.90;;;;;;5074063;28;20036;-49
2022/05/01 03:14:03;;;;;;;22.20;15.00;;;8.10;99.90;;;;;;5072734;28;20501;-48
2022/05/01 03:16:29;;;;;;;20.42;14.43;;;8.10;99.90;;;;;;5073131;28;20037;-48
2022/05/01 03:24:23;;;;;;;19.60;14.20;;;8.10;99.90;;;;;;5074208;28;20509;-48
2022/05/01 03:26:48;;;;;;;21.65;14.45;;;8.00;99.90;;;;;;5074131;28;20033;-47
2022/05/01 03:29:15;;;;;;;22.35;14.60;;;8.00;99.90;;;;;;5073867;28;20058;-49
2022/05/01 03:31:40;;;;;;;21.55;14.57;;;8.00;99.90;;;;;;5073929;28;20039;-49
2022/05/01 03:34:06;;;;;;;24.65;14.80;;;8.00;99.90;;;;;;5073592;28;20036;-48
2022/05/01 03:36:32;;;;;;;21.15;15.18;;;8.00;99.90;;;;;;5073681;28;20044;-48
2022/05/01 03:38:59;;;;;;;22.35;15.85;;;7.90;99.90;;;;;;5073610;28;20156;-49
2022/05/01 03:41:26;;;;;;;22.13;15.40;;;7.90;99.90;;;;;;5073563;28;20508;-48
2022/05/01 03:43:52;;;;;;;22.15;14.90;;;7.90;99.90;;;;;;5072387;28;20123;-48
2022/05/01 03:46:22;;;;;;;25.45;15.32;;;7.90;99.90;;;;;;5073622;28;20048;-49
2022/05/01 03:48:48;;;;;;;21.10;14.90;;;7.80;99.90;;;;;;5073307;28;20040;-48
2022/05/01 03:51:13;;;;;;;23.08;16.20;;;7.80;99.90;;;;;;5073670;28;20037;-48
2022/05/01 03:53:39;;;;;;;23.45;15.20;;;7.90;99.90;;;;;;5073992;28;20044;-47
2022/05/01 03:56:05;;;;;;;21.90;15.02;;;7.90;99.90;;;;;;5073516;28;20513;-48
2022/05/01 03:58:31;;;;;;;20.98;14.95;;;7.80;99.90;;;;;;5073130;28;20040;-47
2022/05/01 04:00:57;;;;;;;24.25;15.95;;;7.80;99.90;;;;;;5073354;28;20078;-47
2022/05/01 04:03:23;;;;;;;21.42;14.90;;;7.80;99.90;;;;;;5073583;28;20036;-47
2022/05/01 04:05:49;;;;;;;20.77;14.73;;;7.80;99.90;;;;;;5073039;28;20041;-48
2022/05/01 04:08:15;;;;;;;25.83;16.08;;;7.70;99.90;;;;;;5073133;28;20147;-47
2022/05/01 04:10:45;;;;;;;25.73;15.57;;;7.70;99.90;;;;;;5073458;28;20550;-48
2022/05/01 04:13:12;;;;;;;22.02;14.65;;;7.70;99.90;;;;;;5073070;28;20032;-48
2022/05/01 04:15:38;;;;;;;23.85;15.20;;;7.70;99.90;;;;;;5073063;28;20099;-48
2022/05/01 04:18:08;;;;;;;24.73;15.35;;;7.70;99.90;;;;;;5072564;28;20150;-47
2022/05/01 04:20:35;;;;;;;19.98;14.95;;;7.70;99.90;;;;;;5073102;28;20048;-48
2022/05/01 04:23:03;;;;;;;23.58;15.77;;;7.70;99.90;;;;;;5072968;28;20119;-48
2022/05/01 04:25:30;;;;;;;24.15;15.05;;;7.70;99.90;;;;;;5072869;28;20045;-47
2022/05/01 04:28:01;;;;;;;21.80;15.60;;;7.70;99.90;;;;;;5072592;28;20498;-48
2022/05/01 04:30:27;;;;;;;27.05;15.98;;;7.70;99.90;;;;;;5072801;28;20110;-48
2022/05/01 04:32:54;;;;;;;24.73;16.25;;;7.70;99.90;;;;;;5054779;28;20040;-47
2022/05/01 04:35:41;;;;;;;25.05;15.68;;;7.70;99.90;;;;;;5072794;28;20086;-47
2022/05/01 04:38:09;;;;;;;22.65;15.68;;;7.60;99.90;;;;;;5072299;28;20032;-47
2022/05/01 04:40:59;;;;;;;23.52;15.50;;;7.60;99.90;;;;;;5072993;28;20036;-48
2022/05/01 04:43:27;;;;;;;24.75;15.70;;;7.60;99.90;;;;;;5072640;28;20079;-47
2022/05/01 04:45:54;;;;;;;22.65;15.82;;;7.60;99.90;;;;;;5072423;28;20041;-47
2022/05/01 04:48:22;;;;;;;22.15;15.30;;;7.70;99.90;;;;;;5072279;28;20094;-47
2022/05/01 04:50:48;;;;;;;25.77;14.98;;;7.70;99.90;;;;;;5072442;28;20383;-48
2022/05/01 04:53:17;;;;;;;22.20;16.60;;;7.70;99.90;;;;;;5072098;28;20051;-47
2022/05/01 04:55:45;;;;;;;22.10;16.55;;;7.80;99.90;;;;;;5070320;28;20566;-48
2022/05/01 04:58:12;;;;;;;21.88;15.15;;;7.70;99.90;;;;;;5072035;28;20040;-47
2022/05/01 05:00:38;;;;;;;26.23;18.00;;;7.80;99.90;;;;;;5071070;28;20048;-48
2022/05/01 05:03:04;;;;;;;27.35;17.42;;;7.80;99.90;;;;;;5072373;28;20033;-47
2022/05/01 05:05:31;;;;;;;24.63;16.80;;;7.70;99.90;;;;;;5072017;28;20072;-48
2022/05/01 05:09:53;;;;;;;25.42;16.77;;;7.80;99.90;;;;;;5071744;28;20040;-47
2022/05/01 05:10:47;;;;;;;24.38;16.23;;;7.80;99.90;;;;;;5071849;28;20045;-47
2022/05/01 05:13:22;;;;;;;27.13;18.70;;;7.90;99.90;;;;;;5072021;28;20409;-48
2022/05/01 05:15:49;;;;;;;22.60;16.38;;;7.80;99.90;;;;;;5071977;28;20044;-47
2022/05/01 05:18:14;;;;;;;27.55;18.23;;;7.80;99.90;;;;;;5071678;28;20059;-48
2022/05/01 05:20:40;;;;;;;25.38;17.70;;;7.80;99.90;;;;;;5071759;28;20498;-48
2022/05/01 05:23:06;;;;;;;23.75;16.77;;;7.80;99.90;;;;;;5071730;28;20086;-47
2022/05/01 05:25:32;;;;;;;26.20;18.83;;;7.70;99.90;;;;;;5071819;28;20441;-49
2022/05/01 05:27:57;;;;;;;25.88;17.23;;;7.80;99.90;;;;;;5071472;28;20043;-47
2022/05/01 05:30:23;;;;;;;28.48;18.30;;;7.80;99.90;;;;;;5071687;28;20040;-47
2022/05/01 05:32:49;;;;;;;31.48;19.35;;;7.80;99.90;;;;;;5071715;28;20465;-47
2022/05/01 05:35:15;;;;;;;27.67;19.30;;;7.90;99.90;;;;;;5070191;28;20532;-47
2022/05/01 05:37:40;;;;;;;27.08;19.10;;;7.90;99.90;;;;;;5071496;28;20032;-48
2022/05/01 05:40:07;;;;;;;26.60;18.55;;;7.90;99.90;;;;;;5071627;28;20033;-47
2022/05/01 05:42:32;;;;;;;29.92;18.80;;;7.90;99.90;;;;;;5071320;28;20044;-48
2022/05/01 05:44:59;;;;;;;28.00;17.98;;;7.90;99.90;;;;;;5071463;28;20036;-48
2022/05/01 05:47:25;;;;;;;28.77;19.27;;;7.90;99.90;;;;;;5070101;28;20109;-48
2022/05/01 05:49:50;;;;;;;26.08;17.58;;;7.90;99.90;;;;;;5071312;28;20115;-49
2022/05/01 05:52:16;;;;;;;30.35;18.27;;;7.90;99.90;;;;;;5070135;28;20494;-47
2022/05/01 05:54:41;;;;;;;25.17;17.77;;;7.90;99.90;;;;;;5071518;28;20033;-51
2022/05/01 05:57:07;;;;;;;26.27;18.17;;;7.90;99.90;;;;;;5071401;28;20166;-49
2022/05/01 05:59:33;;;;;;;28.50;17.65;;;7.90;99.90;;;;;;5071222;28;20399;-51
2022/05/01 06:01:59;;;;;;;23.95;17.17;;;7.90;99.90;;;;;;5071249;28;20044;-50
2022/05/01 06:04:24;;;;;;;24.27;17.65;;;8.00;99.90;;;;;;5071061;28;20052;-48
2022/05/01 06:06:50;;;;;;;24.23;17.63;;;8.00;99.90;;;;;;5071722;28;20098;-49
2022/05/01 06:09:15;;;;;;;24.67;17.30;;;8.00;99.90;;;;;;5075391;28;20047;-48
2022/05/01 06:11:41;;;;;;;24.98;17.98;;;8.00;99.90;;;;;;5075436;28;20037;-51
2022/05/01 06:14:07;;;;;;;25.33;17.63;;;8.10;99.90;;;;;;5075302;28;20097;-47
2022/05/01 06:16:32;;;;;;;27.85;18.48;;;8.10;99.90;;;;;;5075341;28;20040;-50
2022/05/01 06:18:59;;;;;;;24.95;17.08;;;8.10;99.90;;;;;;5074891;28;20070;-49
2022/05/01 06:21:25;;;;;;;25.17;17.67;;;8.10;99.90;;;;;;5075361;28;20090;-50
2022/05/01 06:23:51;;;;;;;24.80;18.70;;;8.10;99.90;;;;;;5075361;28;20040;-51
2022/05/01 06:26:17;;;;;;;25.58;18.45;;;8.10;99.90;;;;;;5074965;28;20494;-49
2022/05/01 06:28:43;;;;;;;28.27;18.70;;;8.20;99.90;;;;;;5074877;28;20102;-51
2022/05/01 06:31:08;;;;;;;26.42;18.40;;;8.30;99.90;;;;;;5075111;28;20059;-50
2022/05/01 06:33:35;;;;;;;23.80;17.33;;;8.40;99.90;;;;;;5074972;28;20083;-48
2022/05/01 06:36:01;;;;;;;29.13;17.20;;;8.40;99.90;;;;;;5075155;28;20051;-48
2022/05/01 06:38:28;;;;;;;26.23;17.45;;;8.50;99.90;;;;;;5074917;28;20048;-48
2022/05/01 06:40:54;;;;;;;25.98;18.67;;;8.40;99.90;;;;;;5074924;28;20402;-47
2022/05/01 06:43:20;;;;;;;25.77;18.33;;;8.50;99.90;;;;;;5074842;28;20037;-48
2022/05/01 06:45:46;;;;;;;26.02;18.80;;;8.50;99.90;;;;;;5073768;28;20044;-48
2022/05/01 06:48:12;;;;;;;26.83;18.38;;;8.60;99.90;;;;;;5074204;28;20462;-48
2022/05/01 06:50:38;;;;;;;23.75;17.52;;;8.60;99.90;;;;;;5073406;28;20040;-48
2022/05/01 06:53:05;;;;;;;28.88;18.92;;;8.70;99.90;;;;;;5074399;28;20571;-48
2022/05/01 06:55:31;;;;;;;25.70;17.38;;;8.70;99.90;;;;;;5074620;28;20044;-48
2022/05/01 06:57:57;;;;;;;25.67;17.70;;;8.80;99.90;;;;;;5074402;28;20513;-48
2022/05/01 07:00:23;;;;;;;23.58;17.85;;;8.90;99.90;;;;;;5074466;28;20119;-48
2022/05/01 07:02:50;;;;;;;26.10;17.33;;;8.90;99.90;;;;;;5074298;28;20043;-49
2022/05/01 07:05:17;;;;;;;22.35;16.42;;;9.00;99.90;;;;;;5074431;28;20047;-48
2022/05/01 07:07:43;;;;;;;23.80;16.55;;;9.00;99.90;;;;;;5074339;28;20201;-48
2022/05/01 07:10:09;;;;;;;22.52;16.15;;;9.10;99.90;;;;;;5073185;28;20212;-48
2022/05/01 07:12:35;;;;;;;22.02;16.23;;;9.10;99.90;;;;;;5074260;28;20037;-48
2022/05/01 07:15:01;;;;;;;25.30;16.73;;;9.20;99.90;;;;;;5074342;28;20040;-48
2022/05/01 07:17:27;;;;;;;23.55;16.15;;;9.20;99.90;;;;;;5072522;28;20076;-51
2022/05/01 07:19:52;;;;;;;22.52;15.65;;;9.20;99.90;;;;;;5073787;28;20081;-48
2022/05/01 07:22:18;;;;;;;24.38;16.58;;;9.20;99.90;;;;;;5074231;28;20041;-49
2022/05/01 07:24:43;;;;;;;21.65;15.43;;;9.40;99.90;;;;;;5074386;28;20040;-48
2022/05/01 07:27:09;;;;;;;19.50;14.93;;;9.50;99.90;;;;;;5073866;28;20041;-47
2022/05/01 07:29:35;;;;;;;21.05;14.55;;;9.50;99.90;;;;;;5073952;28;20037;-49
2022/05/01 07:32:01;;;;;;;22.70;14.82;;;9.60;99.90;;;;;;5074162;28;20053;-49
2022/05/01 07:34:26;;;;;;;21.40;14.77;;;9.60;99.90;;;;;;5074061;28;20245;-49
2022/05/01 07:36:52;;;;;;;22.95;15.60;;;9.60;99.90;;;;;;5073916;28;20402;-49
2022/05/01 07:39:18;;;;;;;20.88;15.23;;;9.80;99.90;;;;;;5073739;28;20520;-50
2022/05/01 07:41:44;;;;;;;20.17;14.70;;;9.80;99.90;;;;;;5073745;28;20111;-49
2022/05/01 07:44:11;;;;;;;22.75;15.60;;;9.90;99.90;;;;;;5073565;28;20048;-51
2022/05/01 07:46:38;;;;;;;21.65;15.13;;;10.00;99.90;;;;;;5073337;28;20041;-50
2022/05/01 07:49:04;;;;;;;22.42;15.10;;;10.00;99.90;;;;;;5073595;28;20040;-48
2022/05/01 07:51:30;;;;;;;20.77;14.63;;;10.00;99.90;;;;;;5073771;28;20037;-48
2022/05/01 07:53:58;;;;;;;29.45;17.48;;;10.10;99.90;;;;;;5073320;28;20040;-50
2022/05/01 07:56:25;;;;;;;22.38;14.68;;;10.10;99.90;;;;;;5055630;28;20041;-50
2022/05/01 07:58:50;;;;;;;21.30;14.63;;;10.10;99.90;;;;;;5073057;28;20040;-48
2022/05/01 08:01:16;;;;;;;21.83;15.02;;;10.20;99.90;;;;;;5072035;28;20415;-47
2022/05/01 08:06:25;;;;;;;22.80;14.23;;;10.30;99.90;;;;;;5073292;28;20056;-48
2022/05/01 08:08:51;;;;;;;20.73;13.15;;;10.30;99.90;;;;;;5071661;28;20041;-49
2022/05/01 08:11:16;;;;;;;17.75;10.75;;;10.40;99.90;;;;;;5073139;28;20039;-48
2022/05/01 08:13:42;;;;;;;24.52;13.43;;;10.50;99.90;;;;;;5054939;28;20056;-47
2022/05/01 08:16:08;;;;;;;18.10;13.25;;;10.60;99.90;;;;;;5072060;28;20090;-48
2022/05/01 08:21:17;;;;;;;14.77;11.40;;;10.50;99.90;;;;;;5073021;28;20099;-49
2022/05/01 08:23:43;;;;;;;10.20;5.72;;;10.60;99.90;;;;;;5072730;28;20441;-48
2022/05/01 08:26:11;;;;;;;11.95;7.43;;;10.60;99.90;;;;;;5072577;28;20516;-48
2022/05/01 08:28:38;;;;;;;11.25;8.02;;;10.70;99.90;;;;;;5072538;28;20036;-48
2022/05/01 08:31:05;;;;;;;14.32;8.85;;;10.80;99.90;;;;;;5072206;28;20040;-49
2022/05/01 08:33:32;;;;;;;14.98;9.52;;;10.90;99.90;;;;;;5072737;28;20036;-47
2022/05/01 08:35:58;;;;;;;15.20;9.25;;;10.90;99.90;;;;;;5072956;28;20407;-49
2022/05/01 08:38:24;;;;;;;15.65;9.75;;;10.90;99.90;;;;;;5072250;28;20410;-48
2022/05/01 08:40:51;;;;;;;12.45;9.15;;;11.00;99.90;;;;;;5072722;28;20044;-48
2022/05/01 08:43:18;;;;;;;18.58;11.05;;;11.10;99.90;;;;;;5072657;28;20036;-49
2022/05/01 08:45:53;;;;;;;17.58;9.93;;;11.20;99.90;;;;;;5072719;28;20041;-49
2022/05/01 08:48:44;;;;;;;13.75;10.00;;;11.30;99.90;;;;;;5072151;28;20499;-48
2022/05/01 08:51:11;;;;;;;15.18;9.63;;;11.50;99.90;;;;;;5071300;28;20472;-48
2022/05/01 08:53:37;;;;;;;14.93;10.40;;;11.60;99.90;;;;;;5072175;28;20417;-48
2022/05/01 08:56:06;;;;;;;12.82;10.00;;;11.70;99.90;;;;;;5072539;28;20044;-47
2022/05/01 08:58:33;;;;;;;15.60;10.30;;;11.80;99.90;;;;;;5072060;28;20040;-50
2022/05/01 09:00:58;;;;;;;13.73;9.77;;;12.00;99.90;;;;;;5072206;28;20067;-48
2022/05/01 09:03:24;;;;;;;16.85;10.18;;;12.10;99.90;;;;;;5071991;28;20501;-51
2022/05/01 09:05:50;;;;;;;15.40;9.20;;;12.20;99.90;;;;;;5072239;28;20044;-48
2022/05/01 09:08:16;;;;;;;13.82;9.13;;;12.30;99.90;;;;;;5071887;28;20044;-49
2022/05/01 09:10:44;;;;;;;12.77;8.20;;;12.40;99.80;;;;;;5070799;28;20486;-48
2022/05/01 09:13:09;;;;;;;13.55;8.95;;;12.40;99.90;;;;;;5071829;28;20041;-48
2022/05/01 09:15:40;;;;;;;16.70;9.43;;;12.60;99.30;;;;;;5071915;28;20397;-49
2022/05/01 09:18:08;;;;;;;13.60;8.98;;;12.70;98.90;;;;;;5071476;28;20044;-49
2022/05/01 09:20:44;;;;;;;11.30;8.93;;;12.70;98.00;;;;;;5070840;28;20076;-48
2022/05/01 09:23:09;;;;;;;15.82;8.80;;;12.70;98.60;;;;;;5071823;28;20126;-49
2022/05/01 09:25:35;;;;;;;14.55;9.35;;;12.80;98.90;;;;;;5071745;28;20652;-48
2022/05/01 09:28:19;;;;;;;11.93;8.85;;;13.00;98.40;;;;;;5071573;28;20555;-48
2022/05/01 09:30:45;;;;;;;13.40;9.27;;;13.10;97.20;;;;;;5071622;28;20032;-49
2022/05/01 09:33:19;;;;;;;13.65;8.45;;;13.20;97.80;;;;;;5071814;28;20033;-49
2022/05/01 09:35:45;;;;;;;14.27;8.85;;;13.30;97.20;;;;;;5071767;28;20049;-48
2022/05/01 09:38:13;;;;;;;12.43;8.75;;;13.40;96.60;;;;;;5071424;28;20131;-48
2022/05/01 09:40:39;;;;;;;12.70;8.05;;;13.50;96.20;;;;;;5071439;28;20131;-48
2022/05/01 09:43:05;;;;;;;10.30;7.55;;;13.60;94.60;;;;;;5071373;28;20115;-49
2022/05/01 09:45:32;;;;;;;12.55;8.13;;;13.60;94.70;;;;;;5071576;28;20502;-50
2022/05/01 09:47:58;;;;;;;12.52;8.32;;;13.60;95.10;;;;;;5071547;28;20106;-49
2022/05/01 09:50:40;;;;;;;10.85;8.30;;;13.80;93.80;;;;;;5070103;28;20040;-49
2022/05/01 09:53:06;;;;;;;14.27;9.50;;;13.70;93.50;;;;;;5081439;22;20448;-48
2022/05/01 09:55:31;;;;;;;12.00;8.65;;;13.80;94.10;;;;;;5040565;28;20051;-49
2022/05/01 09:58:11;;;;;;;12.30;8.65;;;13.90;93.00;;;;;;5051182;28;20033;-49
2022/05/01 10:00:45;;;;;;;13.35;8.52;;;13.90;92.10;;;;;;5051465;28;20041;-51
2022/05/01 10:03:25;;;;;;;13.57;8.45;;;13.80;91.90;;;;;;5046545;28;20041;-49
2022/05/01 10:05:53;;;;;;;12.68;8.00;;;13.80;92.30;;;;;;5030084;28;20434;-49
2022/05/01 10:08:22;;;;;;;10.73;7.90;;;13.80;91.70;;;;;;5031278;28;20128;-48
2022/05/01 10:10:58;;;;;;;11.98;8.20;;;13.80;91.80;;;;;;5031452;28;20045;-48
2022/05/01 10:13:25;;;;;;;13.15;7.50;;;13.80;90.60;;;;;;5031361;28;20042;-49
2022/05/01 10:15:52;;;;;;;10.32;7.05;;;13.70;89.30;;;;;;5031205;28;20558;-48
2022/05/01 10:18:18;;;;;;;10.85;7.28;;;13.70;88.80;;;;;;5030932;28;20037;-48
2022/05/01 10:20:44;;;;;;;11.52;7.85;;;13.80;90.10;;;;;;5030997;28;20469;-49
2022/05/01 10:23:13;;;;;;;9.95;7.20;;;14.00;90.70;;;;;;5031189;28;20038;-50
2022/05/01 10:25:47;;;;;;;11.23;7.13;;;14.00;84.80;;;;;;5031051;28;20639;-48
2022/05/01 10:28:21;;;;;;;10.88;6.95;;;14.00;87.60;;;;;;5030939;28;20411;-49
2022/05/01 10:34:06;;;;;;;8.90;6.55;;;13.80;87.20;;;;;;5031008;28;20426;-49
2022/05/01 10:36:58;;;;;;;9.27;5.97;;;13.70;90.10;;;;;;5031022;28;20055;-48
2022/05/01 10:39:33;;;;;;;8.75;6.07;;;13.60;86.30;;;;;;5030688;28;20049;-49
2022/05/01 10:41:59;;;;;;;8.88;5.85;;;13.50;85.00;;;;;;5031243;28;20107;-48
2022/05/01 10:44:39;;;;;;;9.43;6.05;;;13.30;88.50;;;;;;5031323;28;20041;-48
2022/05/01 10:47:13;;;;;;;10.18;5.68;;;13.30;90.10;;;;;;5030899;28;20141;-48
2022/05/01 10:49:47;;;;;;;8.75;5.32;;;13.30;90.60;;;;;;5030932;28;20073;-48
2022/05/01 10:52:23;;;;;;;7.10;4.05;;;13.30;86.50;;;;;;5031220;28;20113;-48
2022/05/01 10:55:05;;;;;;;8.13;4.43;;;13.20;86.00;;;;;;5034041;28;20045;-48
2022/05/01 10:57:31;;;;;;;10.57;4.88;;;13.10;87.40;;;;;;5034499;28;20037;-48
2022/05/01 11:00:15;;;;;;;8.32;5.00;;;13.00;89.20;;;;;;5034659;28;20037;-51
2022/05/01 11:02:51;;;;;;;7.25;4.72;;;13.10;87.90;;;;;;5034494;28;20041;-51
2022/05/01 11:05:43;;;;;;;8.25;4.80;;;13.00;89.10;;;;;;5034532;28;20057;-51
2022/05/01 11:08:33;;;;;;;8.67;5.00;;;13.00;89.60;;;;;;5034316;28;20033;-49
2022/05/01 11:11:00;;;;;;;7.72;5.40;;;12.90;87.20;;;;;;5034630;28;20291;-50
2022/05/01 11:13:36;;;;;;;8.55;5.28;;;12.90;90.10;;;;;;5034408;28;20033;-51
2022/05/01 11:16:03;;;;;;;6.75;5.00;;;12.90;89.10;;;;;;5034230;28;20534;-51
2022/05/01 11:18:42;;;;;;;7.55;5.00;;;12.90;89.20;;;;;;5033916;28;20514;-51
2022/05/01 11:21:19;;;;;;;8.50;5.03;;;12.90;88.00;;;;;;5033988;28;20037;-51
2022/05/01 11:23:46;;;;;;;6.75;4.55;;;12.90;87.90;;;;;;5034142;28;20044;-50
2022/05/01 11:26:13;;;;;;;9.65;4.95;;;12.80;87.50;;;;;;5034077;28;20380;-51
2022/05/01 11:28:52;;;;;;;7.25;5.25;;;12.80;88.20;;;;;;5033839;28;20590;-51
2022/05/01 11:31:36;;;;;;;10.23;5.15;;;12.90;88.80;;;;;;5033986;28;20041;-52
2022/05/01 11:34:17;;;;;;;10.32;5.28;;;12.90;88.40;;;;;;5033986;28;20038;-52
2022/05/01 11:36:54;;;;;;;9.40;5.90;;;12.90;87.10;;;;;;5033917;28;20038;-51
2022/05/01 11:39:21;;;;;;;11.20;5.07;;;12.90;88.60;;;;;;5033556;28;20052;-52
2022/05/01 11:42:00;;;;;;;8.82;5.25;;;13.00;87.60;;;;;;5033688;28;20041;-51
2022/05/01 11:44:27;;;;;;;9.85;5.47;;;13.00;86.70;;;;;;5033860;28;20091;-50
2022/05/01 11:46:52;;;;;;;9.98;5.55;;;13.00;86.00;;;;;;5033927;28;20045;-51
2022/05/01 11:49:18;;;;;;;6.82;4.95;;;13.00;85.90;;;;;;5033555;28;20124;-51
2022/05/01 11:51:45;;;;;;;7.82;5.35;;;13.10;87.10;;;;;;5033619;28;20391;-51
2022/05/01 11:54:11;;;;;;;9.25;5.30;;;13.10;86.40;;;;;;5033382;28;20633;-51
2022/05/01 12:02:27;;;;;;;9.93;6.03;;;13.30;82.50;;;;;;5033549;28;20132;-51
2022/05/01 12:05:05;;;;;;;8.20;5.60;;;13.40;81.50;;;;;;5032014;28;20041;-51
2022/05/01 12:07:31;;;;;;;8.88;5.63;;;13.70;83.80;;;;;;5031725;28;20132;-51
2022/05/01 12:09:57;;;;;;;9.38;6.30;;;13.50;83.80;;;;;;5033314;28;20105;-51
2022/05/01 12:12:29;;;;;;;7.95;5.72;;;13.60;84.20;;;;;;5033337;28;20065;-51
2022/05/01 12:14:57;;;;;;;11.32;6.30;;;13.60;80.10;;;;;;5033115;28;20033;-52
2022/05/01 12:17:23;;;;;;;10.40;6.00;;;13.70;81.50;;;;;;5032755;28;20388;-51
2022/05/01 12:19:50;;;;;;;8.82;5.43;;;13.70;82.50;;;;;;5033189;28;20052;-51
2022/05/01 12:22:20;;;;;;;8.20;5.50;;;13.70;79.40;;;;;;5033215;28;20057;-52
2022/05/01 12:24:47;;;;;;;8.55;5.85;;;13.70;80.40;;;;;;5033084;28;20049;-51
2022/05/01 12:27:15;;;;;;;10.20;5.25;;;13.70;80.50;;;;;;5032805;28;20048;-51
2022/05/01 12:29:51;;;;;;;7.57;5.30;;;13.70;79.00;;;;;;5032847;28;20041;-51
2022/05/01 12:32:17;;;;;;;9.40;5.82;;;13.70;77.60;;;;;;5033014;28;20041;-51
2022/05/01 12:34:52;;;;;;;7.38;5.05;;;13.70;77.80;;;;;;5032798;28;20055;-51
2022/05/01 12:37:19;;;;;;;10.00;5.75;;;13.60;77.60;;;;;;5032576;28;20041;-51
2022/05/01 12:40:09;;;;;;;11.05;5.35;;;13.60;79.70;;;;;;5032655;28;20046;-49
2022/05/01 12:45:40;;;;;;;9.02;5.95;;;13.60;76.00;;;;;;5032673;28;20060;-48
2022/05/01 12:48:07;;;;;;;9.48;5.97;;;13.60;78.40;;;;;;5032548;28;20425;-50
2022/05/01 12:50:35;;;;;;;9.43;5.47;;;13.60;78.60;;;;;;5032341;28;20458;-48
2022/05/01 12:53:19;;;;;;;9.23;5.55;;;13.50;78.30;;;;;;5032291;28;20041;-48
2022/05/01 12:55:45;;;;;;;11.18;5.45;;;13.50;78.70;;;;;;5032489;28;20427;-48
2022/05/01 12:58:11;;;;;;;8.18;5.40;;;13.60;76.10;;;;;;5032212;28;20037;-48
2022/05/01 13:00:47;;;;;;;7.85;5.10;;;13.50;76.80;;;;;;5032400;28;20051;-48
2022/05/01 13:03:15;;;;;;;8.98;5.32;;;13.50;78.30;;;;;;5032014;28;20099;-50
2022/05/01 13:05:54;;;;;;;7.47;5.38;;;13.50;75.50;;;;;;5031317;28;20042;-48
2022/05/01 13:08:20;;;;;;;6.97;5.65;;;13.50;77.80;;;;;;5014195;28;20335;-48
2022/05/01 13:11:07;;;;;;;9.25;5.57;;;13.40;79.50;;;;;;5032139;28;20037;-49
2022/05/01 13:13:47;;;;;;;10.68;5.53;;;13.50;79.30;;;;;;5031849;28;20040;-48